createdAt,value
2022-11-29T00:00:20.521Z,83.76
2022-11-29T00:05:19.368Z,83.76
2022-11-29T00:10:19.240Z,83.97
2022-11-29T00:15:19.153Z,84.38
2022-11-29T00:20:19.076Z,84.17
2022-11-29T00:25:19.055Z,84.07
2022-11-29T00:30:18.939Z,84.17
2022-11-29T00:35:18.905Z,84.17
2022-11-29T00:40:18.924Z,84.28
2022-11-29T00:45:18.857Z,84.28
2022-11-29T00:50:18.698Z,84.38
2022-11-29T00:55:18.634Z,83.93
2022-11-29T01:00:18.598Z,84.23
2022-11-29T01:05:18.513Z,84.34
2022-11-29T01:10:18.465Z,83.83
2022-11-29T01:15:18.367Z,84.34
2022-11-29T01:20:18.329Z,84.23
2022-11-29T01:25:18.286Z,84.44
2022-11-29T01:30:18.219Z,84.34
2022-11-29T01:35:18.145Z,84.23
2022-11-29T01:40:18.034Z,84.65
2022-11-29T01:45:18.012Z,84.23
2022-11-29T01:50:17.912Z,84.44
2022-11-29T01:55:17.901Z,84.65
2022-11-29T02:00:17.821Z,84.34
2022-11-29T02:05:17.728Z,84.34
2022-11-29T02:10:17.681Z,85.06
2022-11-29T02:15:17.630Z,84.86
2022-11-29T02:20:17.556Z,85.99
2022-11-29T02:25:17.509Z,86.61
2022-11-29T02:30:17.417Z,87.54
2022-11-29T02:35:17.401Z,88.71
2022-11-29T02:40:17.268Z,89.34
2022-11-29T02:45:17.210Z,90.06
2022-11-29T02:50:17.147Z,90.26
2022-11-29T02:55:17.089Z,91.13
2022-11-29T03:00:17.022Z,91.65
2022-11-29T03:05:16.963Z,91.13
2022-11-29T03:10:16.854Z,91.55
2022-11-29T03:15:16.816Z,92.27
2022-11-29T03:20:16.727Z,92.27
2022-11-29T03:25:16.698Z,93.10
2022-11-29T03:30:16.606Z,92.58
2022-11-29T03:35:16.585Z,93.10
2022-11-29T03:40:16.500Z,93.41
2022-11-29T03:45:16.464Z,93.45
2022-11-29T03:50:16.359Z,93.30
2022-11-29T03:55:16.288Z,93.45
2022-11-29T04:00:16.239Z,93.76
2022-11-29T04:05:16.204Z,93.87
2022-11-29T04:10:16.103Z,93.76
2022-11-29T04:15:16.018Z,94.07
2022-11-29T04:20:15.953Z,93.55
2022-11-29T04:25:15.923Z,93.45
2022-11-29T04:30:15.858Z,93.87
2022-11-29T04:35:15.778Z,93.45
2022-11-29T04:40:15.991Z,93.66
2022-11-29T04:45:15.661Z,93.55
2022-11-29T04:50:15.560Z,92.93
2022-11-29T04:55:22.701Z,92.93
2022-11-29T05:00:16.526Z,92.83
2022-11-29T05:05:15.388Z,92.52
2022-11-29T05:10:15.351Z,92.93
2022-11-29T05:15:15.252Z,92.52
2022-11-29T05:20:15.209Z,92.42
2022-11-29T05:25:15.136Z,91.69
2022-11-29T05:30:15.085Z,91.80
2022-11-29T05:35:15.025Z,91.17
2022-11-29T05:40:14.952Z,91.28
2022-11-29T05:45:14.852Z,91.59
2022-11-29T05:50:14.820Z,91.28
2022-11-29T05:55:14.728Z,90.87
2022-11-29T06:00:14.676Z,91.38
2022-11-29T06:05:14.597Z,91.32
2022-11-29T06:10:14.587Z,91.28
2022-11-29T06:15:14.496Z,91.07
2022-11-29T06:20:14.410Z,90.87
2022-11-29T06:25:14.399Z,90.35
2022-11-29T06:30:14.284Z,90.87
2022-11-29T06:35:14.349Z,90.56
2022-11-29T06:40:14.138Z,90.25
2022-11-29T06:45:14.073Z,90.66
2022-11-29T06:50:14.037Z,90.56
2022-11-29T06:55:13.955Z,90.80
2022-11-29T07:00:13.970Z,91.28
2022-11-29T07:05:13.967Z,91.28
2022-11-29T07:10:15.050Z,90.80
2022-11-29T07:15:13.724Z,91.17
2022-11-29T07:20:13.706Z,90.91
2022-11-29T07:25:13.571Z,91.01
2022-11-29T07:30:13.508Z,90.80
2022-11-29T07:35:13.464Z,91.32
2022-11-29T07:40:13.359Z,92.00
2022-11-29T07:45:13.311Z,91.59
2022-11-29T07:50:13.249Z,91.59
2022-11-29T07:55:18.337Z,91.17
2022-11-29T08:00:14.159Z,90.97
2022-11-29T08:05:13.120Z,90.56
2022-11-29T08:10:12.978Z,90.10
2022-11-29T08:15:12.934Z,90.83
2022-11-29T08:20:12.904Z,90.16
2022-11-29T08:25:12.838Z,89.86
2022-11-29T08:30:12.731Z,88.82
2022-11-29T08:35:12.687Z,89.13
2022-11-29T08:40:12.623Z,88.89
2022-11-29T08:45:12.542Z,87.44
2022-11-29T08:50:12.478Z,87.74
2022-11-29T08:55:12.441Z,87.74
2022-11-29T09:00:12.340Z,88.26
2022-11-29T09:05:12.269Z,88.68
2022-11-29T09:10:12.384Z,87.44
2022-11-29T09:15:12.141Z,87.60
2022-11-29T09:20:12.077Z,87.65
2022-11-29T09:25:12.011Z,87.02
2022-11-29T09:30:11.935Z,86.98
2022-11-29T09:35:11.881Z,87.19
2022-11-29T09:40:11.833Z,86.57
2022-11-29T09:45:11.771Z,86.78
2022-11-29T09:50:11.696Z,86.22
2022-11-29T09:55:11.655Z,85.60
2022-11-29T10:00:11.553Z,85.91
2022-11-29T10:05:11.498Z,85.09
2022-11-29T10:10:11.426Z,84.72
2022-11-29T10:15:11.387Z,84.88
2022-11-29T10:20:11.291Z,84.67
2022-11-29T10:25:11.231Z,84.36
2022-11-29T10:30:11.184Z,83.29
2022-11-29T10:35:11.124Z,83.81
2022-11-29T10:40:11.062Z,82.78
2022-11-29T10:45:10.965Z,82.47
2022-11-29T10:50:10.924Z,82.57
2022-11-29T10:55:10.924Z,82.89
2022-11-29T11:00:10.797Z,83.33
2022-11-29T11:05:10.767Z,83.40
2022-11-29T11:10:10.675Z,82.47
2022-11-29T11:15:10.573Z,82.89
2022-11-29T11:20:10.520Z,82.61
2022-11-29T11:25:10.483Z,82.92
2022-11-29T11:30:10.713Z,82.98
2022-11-29T11:35:15.533Z,82.98
2022-11-29T11:40:11.332Z,82.68
2022-11-29T11:45:10.246Z,82.78
2022-11-29T11:50:10.143Z,83.40
2022-11-29T11:55:10.045Z,82.06
2022-11-29T12:00:09.990Z,83.19
2022-11-29T12:05:09.936Z,82.26
2022-11-29T12:10:09.881Z,82.57
2022-11-29T12:15:09.789Z,82.89
2022-11-29T12:20:09.730Z,82.68
2022-11-29T12:25:09.656Z,81.85
2022-11-29T12:30:09.605Z,82.06
2022-11-29T12:35:09.575Z,82.06
2022-11-29T12:40:09.430Z,82.47
2022-11-29T12:45:09.403Z,83.40
2022-11-29T12:50:09.358Z,81.96
2022-11-29T12:55:09.280Z,82.06
2022-11-29T13:00:09.263Z,81.54
2022-11-29T13:05:09.160Z,82.16
2022-11-29T13:10:13.689Z,82.37
2022-11-29T13:15:10.087Z,82.57
2022-11-29T13:20:08.942Z,82.26
2022-11-29T13:25:09.586Z,82.26
2022-11-29T13:30:08.798Z,82.37
2022-11-29T13:35:08.738Z,82.06
2022-11-29T13:40:08.668Z,82.57
2022-11-29T13:45:08.566Z,82.71
2022-11-29T13:50:08.533Z,83.03
2022-11-29T13:55:08.450Z,83.64
2022-11-29T14:00:08.406Z,83.54
2022-11-29T14:05:08.318Z,83.95
2022-11-29T14:10:08.251Z,83.75
2022-11-29T14:15:08.227Z,83.99
2022-11-29T14:20:08.123Z,83.89
2022-11-29T14:25:21.860Z,84.30
2022-11-29T14:30:08.984Z,83.78
2022-11-29T14:35:07.926Z,83.99
2022-11-29T14:40:07.876Z,84.09
2022-11-29T14:45:07.817Z,84.41
2022-11-29T14:50:08.012Z,84.34
2022-11-29T14:55:07.696Z,84.65
2022-11-29T15:00:07.599Z,84.75
2022-11-29T15:05:07.546Z,85.06
2022-11-29T15:10:07.512Z,85.27
2022-11-29T15:15:07.422Z,85.62
2022-11-29T15:20:07.345Z,85.72
2022-11-29T15:25:07.319Z,85.62
2022-11-29T15:30:07.259Z,85.52
2022-11-29T15:35:07.172Z,86.55
2022-11-29T15:40:07.113Z,86.34
2022-11-29T15:45:07.047Z,85.93
2022-11-29T15:50:06.978Z,85.93
2022-11-29T15:55:06.899Z,86.44
2022-11-29T16:00:06.809Z,86.34
2022-11-29T16:05:06.765Z,86.55
2022-11-29T16:10:06.729Z,86.03
2022-11-29T16:15:06.630Z,86.03
2022-11-29T16:20:06.563Z,85.83
2022-11-29T16:25:06.607Z,86.03
2022-11-29T16:30:06.461Z,86.03
2022-11-29T16:35:06.445Z,86.03
2022-11-29T16:40:06.346Z,85.72
2022-11-29T16:45:06.317Z,85.72
2022-11-29T16:50:06.232Z,85.52
2022-11-29T16:55:06.121Z,85.52
2022-11-29T17:00:06.085Z,85.31
2022-11-29T17:05:05.985Z,85.62
2022-11-29T17:10:05.895Z,85.21
2022-11-29T17:15:05.855Z,85.21
2022-11-29T17:20:05.796Z,85.21
2022-11-29T17:25:05.751Z,85.00
2022-11-29T17:30:05.751Z,84.89
2022-11-29T17:35:05.741Z,84.69
2022-11-29T17:40:05.579Z,84.31
2022-11-29T17:45:05.488Z,84.48
2022-11-29T17:50:05.437Z,84.11
2022-11-29T17:55:05.457Z,84.21
2022-11-29T18:00:05.294Z,83.97
2022-11-29T18:05:05.272Z,84.00
2022-11-29T18:10:05.178Z,83.80
2022-11-29T18:15:05.127Z,83.90
2022-11-29T18:20:05.058Z,83.28
2022-11-29T18:25:30.581Z,83.39
2022-11-29T18:30:05.941Z,83.65
2022-11-29T18:35:04.872Z,83.25
2022-11-29T18:40:04.752Z,82.73
2022-11-29T18:45:04.709Z,82.97
2022-11-29T18:50:04.619Z,83.07
2022-11-29T18:55:04.542Z,83.45
2022-11-29T19:00:04.514Z,83.04
2022-11-29T19:05:04.485Z,83.14
2022-11-29T19:10:04.377Z,82.97
2022-11-29T19:15:04.310Z,83.34
2022-11-29T19:20:04.278Z,83.18
2022-11-29T19:25:04.244Z,83.18
2022-11-29T19:30:04.417Z,83.07
2022-11-29T19:35:04.164Z,82.87
2022-11-29T19:40:03.987Z,82.87
2022-11-29T19:45:21.151Z,83.28
2022-11-29T19:50:04.906Z,83.07
2022-11-29T19:55:03.817Z,84.00
2022-11-29T20:00:03.744Z,83.39
2022-11-29T20:05:03.665Z,83.39
2022-11-29T20:10:03.600Z,83.90
2022-11-29T20:15:03.517Z,83.59
2022-11-29T20:20:03.891Z,83.59
2022-11-29T20:25:03.397Z,83.28
2022-11-29T20:30:03.382Z,83.49
2022-11-29T20:35:03.305Z,83.49
2022-11-29T20:40:03.218Z,83.59
2022-11-29T20:45:03.174Z,83.32
2022-11-29T20:50:03.106Z,83.73
2022-11-29T20:55:03.042Z,83.87
2022-11-29T21:00:02.976Z,83.67
2022-11-29T21:05:02.949Z,87.83
2022-11-29T21:10:02.821Z,84.75
2022-11-29T21:15:02.775Z,83.00
2022-11-29T21:20:02.771Z,80.69
2022-11-29T21:25:02.615Z,81.21
2022-11-29T21:30:02.645Z,81.04
2022-11-29T21:35:02.486Z,80.11
2022-11-29T21:40:02.466Z,80.87
2022-11-29T21:45:02.394Z,80.25
2022-11-29T21:50:04.073Z,80.35
2022-11-29T21:55:02.295Z,81.18
2022-11-29T22:00:02.245Z,80.56
2022-11-29T22:05:02.139Z,80.46
2022-11-29T22:10:02.123Z,81.21
2022-11-29T22:15:02.018Z,81.32
2022-11-29T22:20:01.960Z,81.21
2022-11-29T22:25:01.880Z,81.42
2022-11-29T22:30:01.828Z,80.90
2022-11-29T22:35:01.764Z,81.35
2022-11-29T22:40:01.701Z,81.63
2022-11-29T22:45:02.705Z,81.52
2022-11-29T22:50:01.650Z,81.56
2022-11-29T22:55:05.011Z,81.67
2022-11-29T23:00:01.525Z,81.70
2022-11-29T23:05:01.419Z,82.22
2022-11-29T23:10:01.320Z,82.43
2022-11-29T23:15:01.257Z,82.74
2022-11-29T23:20:01.170Z,82.12
2022-11-29T23:25:01.145Z,82.46
2022-11-29T23:30:01.145Z,82.88
2022-11-29T23:35:01.184Z,82.57
2022-11-29T23:40:00.936Z,82.67
2022-11-29T23:45:00.858Z,82.26
2022-11-29T23:50:00.850Z,82.26
2022-11-29T23:55:00.794Z,82.36
